Terminal Aerodrome Forecast
Issued by NWS Austin/San Antonio, TX

Home | Current Version | Previous Version | Text Only | Print | Product List | Glossary On
Versions: 1 2 3 4 5 6 7 8 9 10 11 12 13 14 15 16 17 18 19 20 21 22 23 24
203
FTUS44 KEWX 191735
TAFSAT
TAF
KSAT 191735Z 1918/2024 17015G25KT P6SM BKN040
     FM192300 14015G25KT P6SM BKN040
     FM200300 15012KT 5SM BR OVC009 PROB30 2008/2012 4SM -TSRA
      BKN009 OVC020CB
     FM201200 16012KT 5SM -RA BR OVC004
     FM202100 16010KT P6SM OVC009 PROB30 2021/2024 5SM -RA BR=

USA.gov is the U.S. government's official web portal to all federal, state and local government web resources and services.